South Bloomingville, Ohio
Current Conditions -  °F | °C
As of 12:54 AM on Sunday 26 Oct 2014 (Local Time) from KRZT Reporting Station
Clear Clear  
Wind Chill: 59°   Ceiling: Unl
Heat Index: 59°   Visibility: 10mi
Dew Point: 46°   Wind: 15mph
Humidity: 63%   Direction: 310°NW
Pressure: 29.9"   Gusts: 20mph
Location:  39.42°N, 82.6°W
Report Text: KRZT 260454Z AUTO 31013G17KT 10SM CLR 15/08 A2990 RMK AO2
Loading
Personal Weather Stations






























Interactive Weather Map
Tropical Storm Tracking
New forecast layout! Learn more

10-Day Weather Forecast

Advertisements
Track Severe Weather on mobile